Flight Track Log - Related Links

Times and Time Zones

All times are in EDT time to prevent confusion due to time zone crossing. See the AAL1144 flight status page for this flight to view local times or setup timezone preferences in your user account.


Time Position Orientation Groundspeed Altitude Reporting Facility
EDT Latitude Longitude Course Direction KTS MPH feet Rate Location/Type
Fri 10:00:38 PM 33.6580 -117.8800 205° Southwest 159 183 1,100  Level FlightAware ADS-B
Fri 10:01:08 PM 33.6330 -117.8900 198° South 193 222 2,000 1,600 Climbing FlightAware ADS-B
Fri 10:01:23 PM 33.6200 -117.8930 191° South 219 252 2,300 1,800 Climbing FlightAware ADS-B
Fri 10:01:48 PM 33.5910 -117.8970 187° South 252 290 3,200 2,727 Climbing FlightAware ADS-B
Fri 10:02:18 PM 33.5550 -117.8890 170° South 263 303 4,800 2,945 Climbing FlightAware ADS-B
Fri 10:02:43 PM 33.5340 -117.8630 134° Southeast 281 323 5,900 3,150 Climbing FlightAware ADS-B
Fri 10:02:58 PM 33.5300 -117.8410 102° East 282 325 6,900 4,000 Climbing FlightAware ADS-B
Fri 10:03:28 PM 33.5360 -117.7930 81° East 277 319 8,900 3,000 Climbing FlightAware ADS-B
Fri 10:04:08 PM 33.5440 -117.7300 81° East 310 357 10,400 1,875 Climbing FlightAware ADS-B
Fri 10:04:48 PM 33.5550 -117.6570 80° East 357 411 11,400 2,188 Climbing FlightAware ADS-B
Fri 10:05:33 PM 33.5700 -117.5680 79° East 372 428 13,500 2,894 Climbing FlightAware ADS-B
Fri 10:06:13 PM 33.5810 -117.4850 81° East 380 437 15,500 2,682 Climbing FlightAware ADS-B
Fri 10:06:58 PM 33.5870 -117.3880 86° East 396 456 17,300 2,400 Climbing FlightAware ADS-B
Fri 10:07:38 PM 33.5900 -117.3020 88° East 407 468 18,900 2,400 Climbing FlightAware ADS-B
Fri 10:08:18 PM 33.5940 -117.2100 87° East 417 480 20,500 2,047 Climbing FlightAware ADS-B
Fri 10:09:03 PM 33.5990 -117.1010 87° East 438 504 21,800 1,765 Climbing FlightAware ADS-B
Fri 10:09:43 PM 33.6010 -117.0070 89° East 449 517 23,000 1,800 Climbing FlightAware ADS-B
Fri 10:10:23 PM 33.6150 -116.9060 81° East 458 527 24,200 1,624 Climbing FlightAware ADS-B
Fri 10:11:08 PM 33.6360 -116.8110 75° East 467 537 25,300 1,500 Climbing FlightAware ADS-B
Fri 10:11:43 PM 33.6570 -116.7220 74° East 474 545 26,200 1,680 Climbing FlightAware ADS-B
Fri 10:12:23 PM 33.6850 -116.6030 74° East 484 557 27,400 847 Climbing FlightAware ADS-B
Fri 10:13:08 PM 33.7100 -116.4990 74° East 484 557 27,400 1,467 Level FlightAware ADS-B
Fri 10:13:53 PM 33.7380 -116.3700 75° East 493 567 29,600 2,200 Climbing FlightAware ADS-B
Fri 10:14:38 PM 33.7650 -116.2470 75° East 497 572 30,700 825 Climbing FlightAware ADS-B
Fri 10:15:13 PM 33.7830 -116.1650 75° East 497 572 30,700  Level FlightAware ADS-B
Fri 10:16:03 PM 33.8090 -116.0520 74° East 497 572 30,700  Level FlightAware ADS-B
Fri 10:16:43 PM 33.8290 -115.9610 75° East 497 572 30,700  Level FlightAware ADS-B
Fri 10:17:23 PM 33.8490 -115.8700 75° East 497 572 30,700  Level FlightAware ADS-B
Fri 10:18:03 PM 33.8690 -115.7790 75° East 497 572 30,700  Level FlightAware ADS-B
Fri 10:18:43 PM 33.8890 -115.6880 75° East 497 572 30,700  Level FlightAware ADS-B
Fri 10:19:33 PM 33.9150 -115.5740 75° East 497 572 30,700  Level FlightAware ADS-B
Fri 10:20:13 PM 33.9350 -115.4830 75° East 497 572 30,700  Level FlightAware ADS-B
Fri 10:20:53 PM 33.9550 -115.3920 75° East 497 572 30,700  Level FlightAware ADS-B
Fri 10:21:33 PM 33.9750 -115.3010 75° East 497 572 30,700  Level FlightAware ADS-B
Fri 10:22:13 PM 33.9960 -115.2100 74° East 497 572 30,700  Level FlightAware ADS-B
Fri 10:22:53 PM 34.0160 -115.1190 75° East 497 572 30,700  Level FlightAware ADS-B
Fri 10:23:43 PM 34.0410 -115.0050 75° East 497 572 30,700  Level FlightAware ADS-B
Fri 10:24:23 PM 34.0610 -114.9140 75° East 497 572 30,700 4,447 Level FlightAware ADS-B
Fri 10:25:08 PM 34.1570 -114.5900 70° East 499 574 37,000 4,725 Climbing FlightAware ADS-B
Fri 10:25:43 PM 34.1970 -114.5200 55° Northeast 499 574 37,000  Level FlightAware ADS-B
Fri 10:26:28 PM 34.2640 -114.4070 54° Northeast 499 574 37,000  Level FlightAware ADS-B
Fri 10:27:13 PM 34.3250 -114.3020 55° Northeast 500 575 37,000  Level FlightAware ADS-B
Fri 10:27:53 PM 34.3920 -114.1870 55° Northeast 500 575 37,000  Level FlightAware ADS-B
Fri 10:28:38 PM 34.4490 -114.0880 55° Northeast 499 574 37,000  Level FlightAware ADS-B
Fri 10:29:18 PM 34.5010 -113.9940 56° Northeast 500 575 37,000  Level FlightAware ADS-B
Fri 10:29:58 PM 34.5430 -113.8930 63° Northeast 501 577 37,000  Level FlightAware ADS-B
Fri 10:30:43 PM 34.5890 -113.7760 64° Northeast 501 577 37,000  Level FlightAware ADS-B
Fri 10:31:23 PM 34.6270 -113.6790 65° Northeast 501 577 37,000  Level FlightAware ADS-B
Fri 10:32:08 PM 34.6730 -113.5640 64° Northeast 503 579 37,000  Level FlightAware ADS-B
Fri 10:32:48 PM 34.7130 -113.4620 64° Northeast 503 579 37,000  Level FlightAware ADS-B
Fri 10:33:28 PM 34.7520 -113.3610 65° Northeast 504 580 37,000  Level FlightAware ADS-B
Fri 10:34:13 PM 34.7990 -113.2420 64° Northeast 504 580 37,000  Level FlightAware ADS-B
Fri 10:34:53 PM 34.8380 -113.1410 65° Northeast 504 580 37,000  Level FlightAware ADS-B
Fri 10:35:38 PM 34.8820 -113.0260 65° Northeast 504 580 37,000  Level FlightAware ADS-B
Fri 10:36:18 PM 34.9210 -112.9260 65° Northeast 502 578 37,000  Level FlightAware ADS-B
Fri 10:36:58 PM 34.9610 -112.8230 65° Northeast 502 578 37,000  Level FlightAware ADS-B
Fri 10:37:43 PM 35.0060 -112.7060 65° Northeast 501 577 37,000  Level FlightAware ADS-B
Fri 10:38:23 PM 35.0450 -112.6030 65° Northeast 499 574 37,000  Level FlightAware ADS-B
Fri 10:39:08 PM 35.0880 -112.4910 65° Northeast 499 574 37,000  Level FlightAware ADS-B
Fri 10:39:48 PM 35.1270 -112.3890 65° Northeast 501 577 37,000  Level FlightAware ADS-B
Fri 10:40:33 PM 35.1720 -112.2710 65° Northeast 502 578 37,000  Level FlightAware ADS-B
Fri 10:41:13 PM 35.2100 -112.1690 65° Northeast 501 577 37,000  Level FlightAware ADS-B
Fri 10:41:53 PM 35.2490 -112.0640 66° East 501 577 37,000  Level FlightAware ADS-B
Fri 10:42:33 PM 35.2870 -111.9630 65° Northeast 502 578 37,000 141 Level FlightAware ADS-B
Fri 10:43:18 PM 35.3310 -111.8470 65° Northeast 505 581 37,200 706 Climbing FlightAware ADS-B
Fri 10:43:58 PM 35.3690 -111.7440 66° East 500 575 38,000 1,059 Climbing FlightAware ADS-B
Fri 10:44:43 PM 35.4130 -111.6250 66° East 496 571 38,700 706 Climbing FlightAware ADS-B
Fri 10:45:23 PM 35.4500 -111.5260 65° Northeast 501 577 39,000 212 Climbing FlightAware ADS-B
Fri 10:46:08 PM 35.4930 -111.4080 66° East 504 580 39,000  Level FlightAware ADS-B
Fri 10:46:48 PM 35.5320 -111.3030 65° Northeast 505 581 39,000  Level FlightAware ADS-B
Fri 10:47:28 PM 35.5690 -111.2000 66° East 504 580 39,000  Level FlightAware ADS-B
Fri 10:48:08 PM 35.6060 -111.0990 66° East 500 575 39,000  Level FlightAware ADS-B
Fri 10:48:58 PM 35.6540 -110.9700 65° Northeast 501 577 39,000  Level FlightAware ADS-B
Fri 10:49:33 PM 35.6880 -110.8740 66° East 503 579 39,000  Level FlightAware ADS-B
Fri 10:50:23 PM 35.7360 -110.7420 66° East 502 578 39,000  Level FlightAware ADS-B
Fri 10:51:03 PM 35.7720 -110.6400 66° East 501 577 39,000  Level FlightAware ADS-B
Fri 10:51:43 PM 35.8090 -110.5370 66° East 500 575 39,000  Level FlightAware ADS-B
Fri 10:52:28 PM 35.8500 -110.4220 66° East 497 572 39,000  Level FlightAware ADS-B
Fri 10:53:08 PM 35.8880 -110.3160 66° East 494 568 39,000  Level FlightAware ADS-B
Fri 10:53:48 PM 35.9240 -110.2150 66° East 491 565 39,000  Level FlightAware ADS-B
Fri 10:54:33 PM 35.9660 -110.0960 66° East 489 563 39,000  Level FlightAware ADS-B
Fri 10:55:28 PM 36.0130 -109.9650 66° East 489 563 39,000  Level FlightAware ADS-B
Fri 10:56:23 PM 36.0520 -109.8070 73° East 493 567 39,000  Level FlightAware ADS-B
Fri 10:57:08 PM 36.0830 -109.6900 72° East 496 571 39,000  Level FlightAware ADS-B
Fri 10:57:48 PM 36.1120 -109.5830 71° East 496 571 39,000  Level FlightAware ADS-B
Fri 10:58:28 PM 36.1380 -109.4820 72° East 496 571 39,000  Level FlightAware ADS-B
Fri 10:59:08 PM 36.1620 -109.3900 72° East 496 571 39,000  Level FlightAware ADS-B
Fri 10:59:48 PM 36.1870 -109.2980 71° East 496 571 39,000  Level FlightAware ADS-B
Fri 11:00:18 PM 36.2050 -109.2290 72° East 496 571 39,000  Level FlightAware ADS-B
Fri 11:00:58 PM 36.2290 -109.1370 72° East 496 571 39,000  Level FlightAware ADS-B
Fri 11:01:48 PM 36.2590 -109.0220 72° East 496 571 39,000  Level FlightAware ADS-B
Fri 11:02:28 PM 36.2830 -108.9300 72° East 496 571 39,000  Level FlightAware ADS-B
Fri 11:03:08 PM 36.3380 -108.7160 72° East 498 573 39,000  Level FlightAware ADS-B
Fri 11:03:53 PM 36.3690 -108.5970 72° East 499 574 39,000  Level FlightAware ADS-B
Fri 11:04:28 PM 36.3910 -108.5140 72° East 499 574 39,000  Level FlightAware ADS-B
Fri 11:05:08 PM 36.4150 -108.4220 72° East 499 574 39,000  Level FlightAware ADS-B
Fri 11:05:58 PM 36.4450 -108.3060 72° East 499 574 39,000  Level FlightAware ADS-B
Fri 11:06:38 PM 36.4690 -108.2130 72° East 499 574 39,000  Level FlightAware ADS-B
Fri 11:07:13 PM 36.5060 -108.0570 74° East 502 578 39,000  Level FlightAware ADS-B
Fri 11:08:18 PM 36.5500 -107.8810 73° East 501 577 39,000  Level FlightAware ADS-B
Fri 11:08:58 PM 36.5750 -107.7870 72° East 501 577 39,000  Level FlightAware ADS-B
Fri 11:09:38 PM 36.5990 -107.6940 72° East 501 577 39,000  Level FlightAware ADS-B
Fri 11:10:18 PM 36.6230 -107.6000 72° East 501 577 39,000  Level FlightAware ADS-B
Fri 11:11:08 PM 36.6540 -107.4840 72° East 501 577 39,000  Level FlightAware ADS-B
Fri 11:11:48 PM 36.6780 -107.3900 72° East 501 577 39,000  Level FlightAware ADS-B
Fri 11:12:28 PM 36.7020 -107.2970 72° East 501 577 39,000  Level FlightAware ADS-B
Fri 11:13:08 PM 36.7270 -107.2030 72° East 501 577 39,000  Level FlightAware ADS-B
Fri 11:13:48 PM 36.7510 -107.1100 72° East 501 577 39,000  Level FlightAware ADS-B
Fri 11:14:38 PM 36.7810 -106.9930 72° East 501 577 39,000  Level FlightAware ADS-B
Fri 11:15:18 PM 36.8060 -106.8990 72° East 501 577 39,000  Level FlightAware ADS-B
Fri 11:15:58 PM 36.8300 -106.8060 72° East 501 577 39,000  Level FlightAware ADS-B
Fri 11:16:38 PM 36.8550 -106.7120 72° East 501 577 39,000  Level FlightAware ADS-B
Fri 11:17:18 PM 36.8790 -106.6180 72° East 501 577 39,000  Level FlightAware ADS-B
Fri 11:18:03 PM 36.9303 -106.2994 72° East 493 567 39,000  Level Denver Center
Fri 11:19:04 PM 36.9656 -106.1489 74° East 493 567 39,000  Level Denver Center
Fri 11:24:56 PM 37.1691 -105.1310 74° East 490 564 39,000  Level FlightAware ADS-B
Fri 11:25:42 PM 37.1930 -105.0060 76° East 490 564 39,000  Level FlightAware ADS-B
Fri 11:26:18 PM 37.2118 -104.9060 77° East 490 564 39,000  Level FlightAware ADS-B
Fri 11:29:15 PM 37.3033 -104.4150 77° East 496 571 39,000  Level FlightAware ADS-B
Fri 11:30:00 PM 37.3267 -104.2870 77° East 499 574 39,000  Level FlightAware ADS-B
Fri 11:30:32 PM 37.3431 -104.1970 77° East 500 575 39,000  Level FlightAware ADS-B
Fri 11:31:23 PM 37.3686 -104.0540 77° East 493 567 39,000  Level FlightAware ADS-B
Fri 11:31:55 PM 37.3849 -103.9640 77° East 490 564 39,000  Level FlightAware ADS-B
Fri 11:32:26 PM 37.4004 -103.8790 77° East 491 565 39,000  Level FlightAware ADS-B
Fri 11:32:57 PM 37.4158 -103.7930 77° East 492 566 39,000  Level FlightAware ADS-B
Fri 11:33:31 PM 37.4325 -103.6990 77° East 492 566 39,000  Level FlightAware ADS-B
Fri 11:34:02 PM 37.4474 -103.6140 78° East 491 565 39,000  Level FlightAware ADS-B
Fri 11:34:32 PM 37.4623 -103.5300 77° East 491 565 39,000  Level FlightAware ADS-B
Fri 11:35:02 PM 37.4770 -103.4460 78° East 489 563 39,000  Level FlightAware ADS-B
Fri 11:35:32 PM 37.4915 -103.3630 78° East 488 562 39,000  Level FlightAware ADS-B
Fri 11:36:02 PM 37.5061 -103.2790 78° East 485 558 39,000  Level FlightAware ADS-B
Fri 11:36:32 PM 37.5204 -103.1970 78° East 483 556 39,000  Level FlightAware ADS-B
Fri 11:37:03 PM 37.5350 -103.1120 78° East 482 555 39,000  Level FlightAware ADS-B
Fri 11:37:35 PM 37.5498 -103.0260 78° East 481 554 39,000  Level FlightAware ADS-B
Fri 11:38:06 PM 37.5643 -102.9410 78° East 480 552 39,000  Level FlightAware ADS-B
Fri 11:38:36 PM 37.5783 -102.8590 78° East 478 550 39,000  Level FlightAware ADS-B
Fri 11:39:06 PM 37.5921 -102.7770 78° East 477 549 39,000  Level FlightAware ADS-B
Fri 11:39:37 PM 37.6059 -102.6950 78° East 475 547 39,000  Level FlightAware ADS-B
Fri 11:40:07 PM 37.6193 -102.6140 78° East 474 545 39,000  Level FlightAware ADS-B
Fri 11:40:37 PM 37.6328 -102.5330 78° East 471 542 39,000  Level FlightAware ADS-B
Fri 11:41:07 PM 37.6464 -102.4520 78° East 469 540 39,000  Level FlightAware ADS-B
Fri 11:41:38 PM 37.6600 -102.3700 78° East 468 539 39,000  Level FlightAware ADS-B
Fri 11:42:08 PM 37.6733 -102.2890 78° East 466 536 39,000  Level FlightAware ADS-B
Fri 11:42:39 PM 37.6865 -102.2080 78° East 464 534 39,000  Level FlightAware ADS-B
Fri 11:43:09 PM 37.6996 -102.1280 78° East 462 532 39,000  Level FlightAware ADS-B
Fri 11:43:41 PM 37.7132 -102.0440 78° East 461 531 39,000  Level FlightAware ADS-B
Fri 11:44:11 PM 37.7263 -101.9640 78° East 463 533 39,000  Level FlightAware ADS-B
Fri 11:44:50 PM 37.7414 -101.8753 78° East 461 531 39,000  Level Denver Center
Fri 11:45:51 PM 37.7647 -101.7219 79° East 463 533 39,000  Level Denver Center
Fri 11:46:52 PM 37.7925 -101.5447 79° East 461 531 39,000  Level Denver Center
Fri 11:47:53 PM 37.8172 -101.3919 78° East 461 531 39,000  Level Denver Center
Fri 11:48:55 PM 37.8408 -101.2386 79° East 462 532 39,000  Level Denver Center
Fri 11:49:56 PM 37.8683 -101.0592 79° East 463 533 39,000  Level Denver Center
Fri 11:50:57 PM 37.8925 -100.9033 79° East 465 535 39,000  Level Denver Center
Fri 11:51:59 PM 37.9164 -100.7450 79° East 471 542 39,000  Level Denver Center
Fri 11:53:04 PM 37.9536 -100.5667 75° East 467 537 39,000  Level Kansas City Center
Fri 11:54:05 PM 37.9881 -100.4153 74° East 466 536 39,000  Level Kansas City Center
Fri 11:55:06 PM 38.0256 -100.2394 75° East 463 533 39,000  Level Kansas City Center
Fri 11:56:07 PM 38.0592 -100.0900 74° East 460 529 39,000  Level Kansas City Center
Fri 11:57:08 PM 38.0914 -99.9425 74° East 456 525 39,000  Level Kansas City Center
Fri 11:58:09 PM 38.1286 -99.7717 74° East 451 519 39,000  Level Kansas City Center
Fri 11:59:09 PM 38.1589 -99.6242 75° East 450 518 39,000  Level Kansas City Center
Sat 12:00:10 AM 38.1919 -99.4803 74° East 450 518 39,000  Level Kansas City Center
Sat 12:01:11 AM 38.2239 -99.3225 76° East 457 526 39,000  Level Kansas City Center
Sat 12:02:12 AM 38.2575 -99.1642 75° East 461 531 39,000  Level Kansas City Center
Sat 12:03:13 AM 38.2917 -99.0083 74° East 459 528 39,000  Level Kansas City Center
Sat 12:04:14 AM 38.3250 -98.8497 75° East 460 529 39,000  Level Kansas City Center
Sat 12:05:15 AM 38.3597 -98.6925 74° East 459 528 39,000  Level Kansas City Center
Sat 12:06:15 AM 38.3919 -98.5353 75° East 457 526 39,000  Level Kansas City Center
Sat 12:07:16 AM 38.4297 -98.3447 76° East 458 527 39,000  Level Kansas City Center
Sat 12:08:17 AM 38.4617 -98.1883 75° East 456 525 39,000  Level Kansas City Center
Sat 12:09:18 AM 38.4931 -98.0314 76° East 454 522 39,000  Level Kansas City Center
Sat 12:10:19 AM 38.5389 -97.8831 68° East 449 517 39,000  Level Kansas City Center
Sat 12:11:20 AM 38.5883 -97.7342 67° East 452 520 39,000  Level Kansas City Center
Sat 12:12:20 AM 38.6381 -97.5839 67° East 457 526 39,000  Level Kansas City Center
Sat 12:13:21 AM 38.6864 -97.4347 67° East 455 524 39,000  Level Kansas City Center
Sat 12:14:22 AM 38.7358 -97.2847 67° East 456 525 39,000  Level Kansas City Center
Sat 12:15:23 AM 38.7842 -97.1353 67° East 454 522 39,000  Level Kansas City Center
Sat 12:16:24 AM 38.8319 -96.9864 68° East 453 521 39,000  Level Kansas City Center
Sat 12:22:18 AM 39.1130 -96.0960 68° East 447 514 39,000  Level FlightAware ADS-B
Sat 12:23:13 AM 39.1530 -95.9670 68° East 446 513 39,000  Level FlightAware ADS-B
Sat 12:23:53 AM 39.1800 -95.8830 67° East 446 513 39,000  Level FlightAware ADS-B
Sat 12:24:38 AM 39.1850 -95.8620 73° East 446 513 39,000  Level FlightAware ADS-B
Sat 12:25:18 AM 39.2150 -95.7680 68° East 448 516 39,000  Level FlightAware ADS-B
Sat 12:26:03 AM 39.2420 -95.6790 69° East 448 516 39,000  Level FlightAware ADS-B
Sat 12:26:43 AM 39.2710 -95.5830 69° East 450 518 39,000  Level FlightAware ADS-B
Sat 12:27:23 AM 39.2990 -95.4910 69° East 450 518 39,000  Level FlightAware ADS-B
Sat 12:28:08 AM 39.3390 -95.3590 69° East 451 519 39,000  Level FlightAware ADS-B
Sat 12:28:48 AM 39.3670 -95.2680 68° East 452 520 39,000  Level FlightAware ADS-B
Sat 12:29:33 AM 39.4050 -95.1410 69° East 452 520 39,000  Level FlightAware ADS-B
Sat 12:30:13 AM 39.4290 -95.0620 69° East 452 520 39,000  Level FlightAware ADS-B
Sat 12:30:58 AM 39.4670 -94.9330 69° East 452 520 39,000  Level FlightAware ADS-B
Sat 12:31:38 AM 39.4900 -94.8570 69° East 452 520 39,000  Level FlightAware ADS-B
Sat 12:32:18 AM 39.5110 -94.7850 69° East 452 520 39,000  Level FlightAware ADS-B
Sat 12:33:03 AM 39.5450 -94.6730 68° East 450 518 39,000  Level FlightAware ADS-B
Sat 12:33:43 AM 39.6300 -94.3820 69° East 444 511 39,000  Level FlightAware ADS-B
Sat 12:34:28 AM 39.6620 -94.2730 69° East 444 511 39,000  Level FlightAware ADS-B
Sat 12:35:08 AM 39.6910 -94.1730 69° East 445 512 39,000  Level FlightAware ADS-B
Sat 12:35:48 AM 39.7190 -94.0730 70° East 444 511 39,000  Level FlightAware ADS-B
Sat 12:36:33 AM 39.7520 -93.9590 69° East 444 511 39,000  Level FlightAware ADS-B
Sat 12:37:13 AM 39.7810 -93.8580 69° East 444 511 39,000  Level FlightAware ADS-B
Sat 12:37:58 AM 39.8120 -93.7500 69° East 444 511 39,000  Level FlightAware ADS-B
Sat 12:38:38 AM 39.8410 -93.6490 69° East 443 510 39,000  Level FlightAware ADS-B
Sat 12:39:18 AM 39.8690 -93.5490 70° East 441 507 39,000  Level FlightAware ADS-B
Sat 12:40:03 AM 39.9010 -93.4380 69° East 442 509 39,000  Level FlightAware ADS-B
Sat 12:40:43 AM 39.9300 -93.3340 70° East 443 510 39,000  Level FlightAware ADS-B
Sat 12:41:23 AM 39.9580 -93.2340 70° East 445 512 39,000  Level FlightAware ADS-B
Sat 12:42:08 AM 39.9870 -93.1300 70° East 447 514 39,000  Level FlightAware ADS-B
Sat 12:42:48 AM 40.0170 -93.0230 70° East 447 514 39,000  Level FlightAware ADS-B
Sat 12:43:33 AM 40.0540 -92.9070 67° East 451 519 39,000  Level FlightAware ADS-B
Sat 12:44:13 AM 40.0940 -92.8110 61° Northeast 450 518 39,000  Level FlightAware ADS-B
Sat 12:44:53 AM 40.1340 -92.7160 61° Northeast 449 517 39,000  Level FlightAware ADS-B
Sat 12:45:38 AM 40.1770 -92.6130 61° Northeast 449 517 39,000  Level FlightAware ADS-B
Sat 12:46:13 AM 40.2100 -92.5310 62° Northeast 449 517 39,000  Level FlightAware ADS-B
Sat 12:47:03 AM 40.2610 -92.4070 62° Northeast 447 514 39,000  Level FlightAware ADS-B
Sat 12:47:58 AM 40.3140 -92.2790 61° Northeast 446 513 39,000  Level FlightAware ADS-B
Sat 12:48:38 AM 40.3530 -92.1850 61° Northeast 446 513 39,000  Level FlightAware ADS-B
Sat 12:49:23 AM 40.3930 -92.0730 65° Northeast 442 509 39,000  Level FlightAware ADS-B
Sat 12:50:03 AM 40.4250 -91.9730 67° East 441 507 39,000  Level FlightAware ADS-B
Sat 12:50:38 AM 40.4500 -91.8940 67° East 440 506 39,000  Level FlightAware ADS-B
Sat 12:51:28 AM 40.4910 -91.7660 67° East 442 509 39,000  Level FlightAware ADS-B
Sat 12:52:08 AM 40.5210 -91.6710 67° East 442 509 39,000  Level FlightAware ADS-B
Sat 12:52:53 AM 40.5590 -91.5530 67° East 442 509 39,000  Level FlightAware ADS-B
Sat 12:53:33 AM 40.5900 -91.4560 67° East 441 507 39,000  Level FlightAware ADS-B
Sat 12:54:13 AM 40.6210 -91.3550 68° East 442 509 39,000  Level FlightAware ADS-B
Sat 12:54:58 AM 40.6560 -91.2480 67° East 441 507 39,000 -424 Level FlightAware ADS-B
Sat 12:55:38 AM 40.6860 -91.1490 68° East 427 491 38,400 -988 Descending FlightAware ADS-B
Sat 12:56:23 AM 40.7200 -91.0410 67° East 419 482 37,600 -988 Descending FlightAware ADS-B
Sat 12:57:03 AM 40.7490 -90.9460 68° East 423 487 37,000 -975 Descending FlightAware ADS-B
Sat 12:57:43 AM 40.7790 -90.8500 68° East 424 488 36,300 -988 Descending FlightAware ADS-B
Sat 12:58:28 AM 40.8120 -90.7410 68° East 425 489 35,600 -988 Descending FlightAware ADS-B
Sat 12:59:08 AM 40.8410 -90.6480 68° East 428 493 34,900 -1,059 Descending FlightAware ADS-B
Sat 12:59:53 AM 40.8750 -90.5390 68° East 428 493 34,100 -1,553 Descending FlightAware ADS-B
Sat 01:00:33 AM 40.9040 -90.4410 69° East 416 479 32,700 -1,906 Descending FlightAware ADS-B
Sat 01:01:18 AM 40.9350 -90.3390 68° East 413 475 31,400 -1,765 Descending FlightAware ADS-B
Sat 01:01:58 AM 40.9640 -90.2440 68° East 416 479 30,200 -1,800 Descending FlightAware ADS-B
Sat 01:02:38 AM 40.9920 -90.1500 68° East 416 479 29,000 -1,765 Descending FlightAware ADS-B
Sat 01:03:23 AM 41.0250 -90.0400 68° East 436 502 27,700 -1,765 Descending FlightAware ADS-B
Sat 01:04:03 AM 41.0560 -89.9390 68° East 436 502 26,500 -1,765 Descending FlightAware ADS-B
Sat 01:04:48 AM 41.0880 -89.8300 69° East 434 499 25,200 -1,765 Descending FlightAware ADS-B
Sat 01:05:28 AM 41.1170 -89.7330 68° East 429 494 24,000 -1,800 Descending FlightAware ADS-B
Sat 01:06:08 AM 41.1460 -89.6350 69° East 423 487 22,800 -1,835 Descending FlightAware ADS-B
Sat 01:06:53 AM 41.1840 -89.5280 65° Northeast 418 481 21,400 -1,835 Descending FlightAware ADS-B
Sat 01:07:33 AM 41.2210 -89.4370 62° Northeast 413 475 20,200 -1,835 Descending FlightAware ADS-B
Sat 01:08:18 AM 41.2610 -89.3380 62° Northeast 400 460 18,800 -1,765 Descending FlightAware ADS-B
Sat 01:08:58 AM 41.2940 -89.2570 62° Northeast 391 450 17,700 -1,725 Descending FlightAware ADS-B
Sat 01:09:38 AM 41.3280 -89.1720 62° Northeast 390 449 16,500 -1,835 Descending FlightAware ADS-B
Sat 01:10:23 AM 41.3660 -89.0770 62° Northeast 373 429 15,100 -1,835 Descending FlightAware ADS-B
Sat 01:11:03 AM 41.3980 -88.9960 62° Northeast 361 415 13,900 -1,800 Descending FlightAware ADS-B
Sat 01:11:43 AM 41.4280 -88.9200 62° Northeast 349 402 12,700 -1,835 Descending FlightAware ADS-B
Sat 01:12:28 AM 41.4610 -88.8380 62° Northeast 339 390 11,300 -1,133 Descending FlightAware ADS-B
Sat 01:13:13 AM 41.4930 -88.7560 62° Northeast 320 368 11,000 -212 Descending FlightAware ADS-B
Sat 01:13:53 AM 41.5210 -88.6860 62° Northeast 316 364 11,000  Level FlightAware ADS-B
Sat 01:14:33 AM 41.5480 -88.6170 62° Northeast 315 362 11,000  Level FlightAware ADS-B
Sat 01:15:18 AM 41.5780 -88.5420 62° Northeast 319 367 11,000  Level FlightAware ADS-B
Sat 01:15:58 AM 41.6070 -88.4710 61° Northeast 323 372 11,000  Level FlightAware ADS-B
Sat 01:16:43 AM 41.6480 -88.4000 52° Northeast 304 350 11,000  Level FlightAware ADS-B
Sat 01:17:23 AM 41.6800 -88.3450 52° Northeast 260 299 11,000 -600 Level FlightAware ADS-B
Sat 01:18:03 AM 41.7080 -88.2970 52° Northeast 245 282 10,200 -1,292 Descending FlightAware ADS-B
Sat 01:18:28 AM 41.7240 -88.2690 53° Northeast 242 278 9,600 -1,067 Descending FlightAware ADS-B
Sat 01:18:48 AM 41.7380 -88.2460 51° Northeast 226 260 9,400 -667 Descending FlightAware ADS-B
Sat 01:19:13 AM 41.7540 -88.2190 52° Northeast 212 244 9,100 -982 Descending FlightAware ADS-B
Sat 01:19:43 AM 41.7740 -88.1920 45° Northeast 217 250 8,500 -1,350 Descending FlightAware ADS-B
Sat 01:19:53 AM 41.7850 -88.1890 11° North 224 258 8,200 -1,600 Descending FlightAware ADS-B
Sat 01:20:13 AM 41.8060 -88.1910 356° North 227 261 7,700 -1,467 Descending FlightAware ADS-B
Sat 01:20:38 AM 41.8310 -88.1940 355° North 231 266 7,100 -1,350 Descending FlightAware ADS-B
Sat 01:20:53 AM 41.8470 -88.2020 340° North 231 266 6,800 -1,000 Descending FlightAware ADS-B
Sat 01:21:08 AM 41.8560 -88.2170 309° West 225 259 6,600 -1,000 Descending FlightAware ADS-B
Sat 01:21:23 AM 41.8630 -88.2370 295° West 223 257 6,300 -1,050 Descending FlightAware ADS-B
Sat 01:21:48 AM 41.8720 -88.2680 291° West 222 255 5,900 -982 Descending FlightAware ADS-B
Sat 01:22:18 AM 41.8850 -88.3060 295° West 223 257 5,400 -900 Descending FlightAware ADS-B
Sat 01:22:28 AM 41.8910 -88.3160 309° West 229 264 5,300 -960 Descending FlightAware ADS-B
Sat 01:22:43 AM 41.9070 -88.3240 340° North 228 262 5,000 -1,067 Descending FlightAware ADS-B
Sat 01:23:13 AM 41.9380 -88.3290 353° North 230 265 4,500 -1,029 Descending FlightAware ADS-B
Sat 01:23:18 AM 41.9430 -88.3290 360° North 228 262 4,400 -1,000 Descending FlightAware ADS-B
Sat 01:23:43 AM 41.9640 -88.3120 31° Northeast 191 220 4,000 -686 Descending FlightAware ADS-B
Sat 01:23:53 AM 41.9660 -88.3020 75° East 182 209 4,000  Level FlightAware ADS-B
Sat 01:24:08 AM 41.9680 -88.2860 80° East 177 204 4,000  Level FlightAware ADS-B
Sat 01:24:53 AM 41.9680 -88.2360 90° East 175 201 4,000  Level FlightAware ADS-B
Sat 01:25:13 AM 41.9680 -88.2140 90° East 175 201 4,000  Level FlightAware ADS-B
Sat 01:25:48 AM 41.9680 -88.1790 90° East 174 200 4,000  Level FlightAware ADS-B
Sat 01:25:53 AM 41.9680 -88.1730 90° East 174 200 4,000 -764 Level FlightAware ADS-B
Sat 01:26:43 AM 41.9680 -88.1170 90° East 174 200 3,300 -900 Descending FlightAware ADS-B
Sat 01:27:13 AM 41.9690 -88.0850 88° East 163 188 2,800 -831 Descending FlightAware ADS-B
Sat 01:27:48 AM 41.9690 -88.0520 90° East 154 177 2,400 -771 Descending FlightAware ADS-B
Sat 01:28:23 AM 41.9690 -88.0200 90° East 132 152 1,900 -700 Descending FlightAware ADS-B
Sat 01:28:48 AM 41.9690 -88.0020 90° East 128 147 1,700 -600 Descending FlightAware ADS-B
Sat 01:29:03 AM 41.9690 -87.9900 90° East 128 147 1,500 -686 Descending FlightAware ADS-B
Sat 01:29:23 AM 41.9690 -87.9740 90° East 125 144 1,300 -667 Descending FlightAware ADS-B
Sat 01:29:48 AM 41.9690 -87.9530 90° East 135 155 1,000 -720 Descending FlightAware ADS-B
Sat 01:30:13 AM 41.9690 -87.9310 90° East 145 167 700 -720 Descending FlightAware ADS-B

Login

Don't have an account? Register now (free) for customized features, flight alerts, and more!